createdAt,value
2024-05-09T00:00:47.993Z,0
2024-05-09T00:01:49.056Z,0
2024-05-09T00:02:50.305Z,0
2024-05-09T00:03:51.522Z,0
2024-05-09T00:04:52.666Z,0
2024-05-09T00:05:53.711Z,0
2024-05-09T00:06:54.801Z,0
2024-05-09T00:07:56.212Z,0
2024-05-09T00:08:57.853Z,0
2024-05-09T00:10:35.980Z,0
2024-05-09T00:11:31.058Z,0
2024-05-09T00:12:32.139Z,0
2024-05-09T00:13:33.479Z,0
2024-05-09T00:14:34.793Z,0
2024-05-09T00:15:36.591Z,0
2024-05-09T00:16:37.299Z,0
2024-05-09T00:17:38.973Z,0
2024-05-09T00:18:39.951Z,0
2024-05-09T00:19:41.072Z,0
2024-05-09T00:20:42.207Z,0
2024-05-09T00:21:43.361Z,0
2024-05-09T00:22:44.638Z,0
2024-05-09T00:23:45.803Z,0
2024-05-09T00:24:46.964Z,0
2024-05-09T00:25:48.451Z,0
2024-05-09T00:26:49.635Z,0
2024-05-09T00:27:50.692Z,0
2024-05-09T00:28:51.914Z,0
2024-05-09T00:29:52.854Z,0
2024-05-09T00:30:54.116Z,0
2024-05-09T00:31:55.114Z,0
2024-05-09T00:32:56.177Z,0
2024-05-09T00:33:57.888Z,0
2024-05-09T00:35:29.138Z,0
2024-05-09T00:36:30.029Z,0
2024-05-09T00:37:30.942Z,0
2024-05-09T00:38:32.040Z,0
2024-05-09T00:39:33.056Z,0
2024-05-09T00:40:39.152Z,0
2024-05-09T00:41:35.555Z,0
2024-05-09T00:42:36.535Z,0
2024-05-09T00:43:37.699Z,0
2024-05-09T00:44:38.735Z,0
2024-05-09T00:45:40.205Z,0
2024-05-09T00:46:41.216Z,0
2024-05-09T00:47:42.410Z,0
2024-05-09T00:48:43.714Z,0
2024-05-09T00:49:44.971Z,0
2024-05-09T00:50:46.072Z,0
2024-05-09T00:51:47.200Z,0
2024-05-09T00:52:48.416Z,0
2024-05-09T00:53:49.792Z,0
2024-05-09T00:54:50.990Z,0
2024-05-09T00:55:52.006Z,0
2024-05-09T00:56:53.059Z,0
2024-05-09T00:57:54.350Z,0
2024-05-09T00:58:55.480Z,0
2024-05-09T00:59:56.634Z,0
2024-05-09T01:01:28.602Z,0
2024-05-09T01:02:29.738Z,0
2024-05-09T01:03:30.750Z,0
2024-05-09T01:04:31.851Z,0
2024-05-09T01:05:33.066Z,0
2024-05-09T01:06:34.221Z,0
2024-05-09T01:07:35.210Z,0
2024-05-09T01:08:36.576Z,0
2024-05-09T01:09:37.659Z,0
2024-05-09T01:10:39.460Z,0
2024-05-09T01:11:39.938Z,0
2024-05-09T01:12:41.053Z,0
2024-05-09T01:13:42.243Z,0
2024-05-09T01:17:55.002Z,0
2024-05-09T01:18:55.811Z,0
2024-05-09T01:19:57.436Z,0
2024-05-09T01:21:29.371Z,0
2024-05-09T01:22:30.392Z,0
2024-05-09T01:23:31.863Z,0
2024-05-09T01:24:32.831Z,0
2024-05-09T01:25:33.963Z,0
2024-05-09T01:26:35.161Z,0
2024-05-09T01:27:36.244Z,0
2024-05-09T01:28:37.248Z,0
2024-05-09T01:29:38.336Z,0
2024-05-09T01:30:39.778Z,0
2024-05-09T01:31:40.993Z,0
2024-05-09T01:32:42.084Z,0
2024-05-09T01:33:43.192Z,0
2024-05-09T01:34:44.323Z,0
2024-05-09T01:35:45.324Z,0
2024-05-09T01:36:46.453Z,0
2024-05-09T01:37:47.643Z,0
2024-05-09T01:38:48.686Z,0
2024-05-09T01:39:49.625Z,0
2024-05-09T01:40:50.681Z,0
2024-05-09T01:41:51.655Z,0
2024-05-09T01:42:52.632Z,0
2024-05-09T01:43:53.685Z,0
2024-05-09T01:44:54.800Z,0
2024-05-09T01:45:55.750Z,0
2024-05-09T01:46:57.527Z,0
2024-05-09T01:48:29.133Z,0
2024-05-09T01:49:30.032Z,0
2024-05-09T01:51:32.461Z,0
2024-05-09T01:52:33.646Z,0
2024-05-09T01:53:34.990Z,0
2024-05-09T01:54:35.873Z,0
2024-05-09T01:55:36.913Z,0
2024-05-09T01:56:37.977Z,0
2024-05-09T01:57:39.081Z,0
2024-05-09T01:58:40.072Z,0
2024-05-09T01:59:41.179Z,0
2024-05-09T02:00:43.382Z,0
2024-05-09T02:01:56.182Z,0
2024-05-09T02:02:44.115Z,0
2024-05-09T02:03:45.304Z,0
2024-05-09T02:04:46.069Z,0
2024-05-09T02:05:47.862Z,0
2024-05-09T02:06:47.957Z,0
2024-05-09T02:07:49.286Z,0
2024-05-09T02:08:50.331Z,0
2024-05-09T02:09:51.373Z,0
2024-05-09T02:10:52.685Z,0
2024-05-09T02:11:53.746Z,0
2024-05-09T02:12:54.713Z,0
2024-05-09T02:13:55.911Z,0
2024-05-09T02:14:57.301Z,0
2024-05-09T02:16:28.943Z,0
2024-05-09T02:17:30.516Z,0
2024-05-09T02:18:31.682Z,0
2024-05-09T02:19:33.053Z,0
2024-05-09T02:20:36.597Z,0
2024-05-09T02:21:35.019Z,0
2024-05-09T02:22:36.519Z,0
2024-05-09T02:23:37.762Z,0
2024-05-09T02:24:38.568Z,0
2024-05-09T02:25:39.643Z,0
2024-05-09T02:26:40.717Z,0
2024-05-09T02:27:41.648Z,0
2024-05-09T02:28:42.838Z,0
2024-05-09T02:29:43.820Z,0
2024-05-09T02:30:44.905Z,0
2024-05-09T02:31:46.126Z,0
2024-05-09T02:32:47.122Z,0
2024-05-09T02:33:48.276Z,0
2024-05-09T02:34:49.081Z,0
2024-05-09T02:35:50.135Z,0
2024-05-09T02:36:51.172Z,0
2024-05-09T02:37:52.670Z,0
2024-05-09T02:38:53.802Z,0
2024-05-09T02:39:55.063Z,0
2024-05-09T02:40:56.237Z,0
2024-05-09T02:42:27.915Z,0
2024-05-09T02:43:29.209Z,0
2024-05-09T02:44:30.454Z,0
2024-05-09T02:45:31.500Z,0
2024-05-09T02:46:32.618Z,0
2024-05-09T02:47:33.914Z,0
2024-05-09T02:48:35.002Z,0
2024-05-09T02:49:35.975Z,0
2024-05-09T02:50:39.592Z,0
2024-05-09T02:51:38.436Z,0
2024-05-09T02:52:39.502Z,0
2024-05-09T02:53:40.630Z,0
2024-05-09T02:54:41.594Z,0
2024-05-09T02:55:43.345Z,0
2024-05-09T02:56:43.736Z,0
2024-05-09T02:57:44.782Z,0
2024-05-09T02:58:45.781Z,0
2024-05-09T02:59:46.764Z,0
2024-05-09T03:00:47.828Z,0
2024-05-09T03:01:48.984Z,0
2024-05-09T03:02:50.278Z,0
2024-05-09T03:03:51.413Z,0
2024-05-09T03:04:52.230Z,0
2024-05-09T03:05:53.143Z,0
2024-05-09T03:06:54.173Z,0
2024-05-09T03:07:55.238Z,0
2024-05-09T03:08:56.715Z,0
2024-05-09T03:10:29.091Z,0
2024-05-09T03:11:29.349Z,0
2024-05-09T03:12:30.385Z,0
2024-05-09T03:13:31.462Z,0
2024-05-09T03:14:32.578Z,0
2024-05-09T03:15:33.846Z,0
2024-05-09T03:16:34.878Z,0
2024-05-09T03:17:36.311Z,0
2024-05-09T03:18:37.127Z,0
2024-05-09T03:19:38.268Z,0
2024-05-09T03:20:39.763Z,0
2024-05-09T03:21:40.478Z,0
2024-05-09T03:22:41.562Z,0
2024-05-09T03:23:42.805Z,0
2024-05-09T03:24:43.618Z,0
2024-05-09T03:25:44.817Z,0
2024-05-09T03:26:45.818Z,0
2024-05-09T03:27:46.870Z,0
2024-05-09T03:28:47.870Z,0
2024-05-09T03:29:48.881Z,0
2024-05-09T03:30:49.943Z,0
2024-05-09T03:31:51.358Z,0
2024-05-09T03:32:52.236Z,0
2024-05-09T03:33:53.161Z,0
2024-05-09T03:34:54.140Z,0
2024-05-09T03:35:55.054Z,0
2024-05-09T03:36:56.461Z,0
2024-05-09T03:38:27.937Z,4
2024-05-09T03:39:28.902Z,4
2024-05-09T03:40:31.114Z,0
2024-05-09T03:41:31.226Z,0
2024-05-09T03:42:32.551Z,4
2024-05-09T03:43:33.618Z,0
2024-05-09T03:44:34.755Z,4
2024-05-09T03:45:35.691Z,4
2024-05-09T03:46:36.732Z,4
2024-05-09T03:47:38.049Z,4
2024-05-09T03:48:38.921Z,8
2024-05-09T03:49:39.874Z,8
2024-05-09T03:50:40.958Z,8
2024-05-09T03:51:41.780Z,8
2024-05-09T03:52:42.847Z,12
2024-05-09T03:53:43.842Z,16
2024-05-09T03:54:44.753Z,16
2024-05-09T03:55:45.761Z,16
2024-05-09T03:56:46.745Z,20
2024-05-09T03:57:47.575Z,28
2024-05-09T03:58:48.526Z,32
2024-05-09T03:59:49.409Z,36
2024-05-09T04:00:50.435Z,36
2024-05-09T04:01:51.443Z,44
2024-05-09T04:02:52.366Z,48
2024-05-09T04:03:53.568Z,52
2024-05-09T04:04:54.672Z,60
2024-05-09T04:05:55.563Z,68
2024-05-09T04:07:27.144Z,76
2024-05-09T04:08:28.109Z,88
2024-05-09T04:09:29.095Z,96
2024-05-09T04:10:33.571Z,108
2024-05-09T04:11:31.137Z,116
2024-05-09T04:12:32.197Z,124
2024-05-09T04:13:33.100Z,132
2024-05-09T04:14:34.418Z,140
2024-05-09T04:15:35.204Z,148
2024-05-09T04:16:36.162Z,160
2024-05-09T04:17:37.529Z,168
2024-05-09T04:18:38.502Z,172
2024-05-09T04:19:39.590Z,180
2024-05-09T04:20:41.381Z,188
2024-05-09T04:21:41.815Z,200
2024-05-09T04:22:42.877Z,212
2024-05-09T04:23:44.192Z,224
2024-05-09T04:24:45.205Z,236
2024-05-09T04:25:46.397Z,244
2024-05-09T04:26:47.396Z,260
2024-05-09T04:27:48.393Z,284
2024-05-09T04:28:49.554Z,288
2024-05-09T04:29:50.612Z,300
2024-05-09T04:30:51.643Z,312
2024-05-09T04:31:52.761Z,320
2024-05-09T04:32:54.069Z,328
2024-05-09T04:33:55.454Z,344
2024-05-09T04:35:27.306Z,356
2024-05-09T04:36:28.274Z,368
2024-05-09T04:37:29.357Z,388
2024-05-09T04:38:30.516Z,396
2024-05-09T04:39:31.615Z,404
2024-05-09T04:40:35.439Z,420
2024-05-09T04:41:34.057Z,444
2024-05-09T04:42:35.187Z,456
2024-05-09T04:43:36.197Z,476
2024-05-09T04:44:37.279Z,488
2024-05-09T04:45:38.308Z,496
2024-05-09T04:46:39.816Z,508
2024-05-09T04:47:41.191Z,532
2024-05-09T04:48:42.044Z,552
2024-05-09T04:49:43.192Z,564
2024-05-09T04:50:44.506Z,556
2024-05-09T04:51:45.529Z,560
2024-05-09T04:52:46.644Z,576
2024-05-09T04:53:47.691Z,592
2024-05-09T04:54:48.951Z,592
2024-05-09T04:55:50.117Z,600
2024-05-09T04:56:51.065Z,608
2024-05-09T04:57:52.181Z,616
2024-05-09T04:58:53.409Z,620
2024-05-09T04:59:54.772Z,640
2024-05-09T05:01:26.635Z,664
2024-05-09T05:02:27.867Z,672
2024-05-09T05:03:29.652Z,680
2024-05-09T05:04:30.647Z,676
2024-05-09T05:05:31.614Z,692
2024-05-09T05:06:32.826Z,712
2024-05-09T05:07:34.111Z,780
2024-05-09T05:08:35.314Z,784
2024-05-09T05:09:36.209Z,780
2024-05-09T05:10:37.466Z,776
2024-05-09T05:11:38.681Z,872
2024-05-09T05:12:39.705Z,888
2024-05-09T05:13:41.730Z,900
2024-05-09T05:14:41.964Z,820
2024-05-09T05:15:43.040Z,852
2024-05-09T05:16:44.179Z,876
2024-05-09T05:17:45.355Z,856
2024-05-09T05:18:46.155Z,904
2024-05-09T05:19:47.350Z,936
2024-05-09T05:20:48.449Z,1056
2024-05-09T05:21:49.286Z,1228
2024-05-09T05:22:50.352Z,1296
2024-05-09T05:23:51.647Z,1248
2024-05-09T05:24:52.714Z,1372
2024-05-09T05:25:54.506Z,1208
2024-05-09T05:26:55.060Z,1008
2024-05-09T05:28:26.692Z,952
2024-05-09T05:29:27.689Z,920
2024-05-09T05:30:33.031Z,904
2024-05-09T05:31:29.965Z,896
2024-05-09T05:32:31.179Z,1088
2024-05-09T05:33:32.351Z,1016
2024-05-09T05:34:33.418Z,1060
2024-05-09T05:35:36.441Z,976
2024-05-09T05:36:37.437Z,940
2024-05-09T05:37:38.546Z,960
2024-05-09T05:38:39.767Z,924
2024-05-09T05:39:40.699Z,888
2024-05-09T05:40:41.799Z,864
2024-05-09T05:41:42.990Z,880
2024-05-09T05:42:44.013Z,896
2024-05-09T05:43:44.971Z,912
2024-05-09T05:44:45.995Z,1048
2024-05-09T05:45:47.110Z,1140
2024-05-09T05:46:48.140Z,1232
2024-05-09T05:47:49.185Z,1300
2024-05-09T05:48:50.329Z,1276
2024-05-09T05:49:51.280Z,1356
2024-05-09T05:50:52.414Z,1492
2024-05-09T05:51:53.257Z,1760
2024-05-09T05:52:54.898Z,1344
2024-05-09T05:54:26.271Z,1300
2024-05-09T05:55:27.226Z,1252
2024-05-09T05:56:28.411Z,1216
2024-05-09T05:57:29.563Z,1132
2024-05-09T05:58:30.715Z,1120
2024-05-09T05:59:31.854Z,1164
2024-05-09T06:00:38.000Z,1100
2024-05-09T06:01:34.092Z,984
2024-05-09T06:02:35.204Z,956
2024-05-09T06:03:36.298Z,1004
2024-05-09T06:04:37.289Z,956
2024-05-09T06:05:38.458Z,768
2024-05-09T06:06:39.420Z,660
2024-05-09T06:07:40.452Z,692
2024-05-09T06:08:41.420Z,856
2024-05-09T06:09:42.418Z,1012
2024-05-09T06:10:43.784Z,1192
2024-05-09T06:11:45.010Z,1356
2024-05-09T06:12:45.923Z,1264
2024-05-09T06:13:46.968Z,1176
2024-05-09T06:14:47.981Z,1244
2024-05-09T06:15:49.139Z,1304
2024-05-09T06:16:50.168Z,1432
2024-05-09T06:17:51.196Z,1492
2024-05-09T06:18:52.300Z,1544
2024-05-09T06:19:53.618Z,1552
2024-05-09T06:20:56.675Z,1472
2024-05-09T06:22:28.140Z,1556
2024-05-09T06:23:29.376Z,1612
2024-05-09T06:24:30.425Z,1488
2024-05-09T06:25:31.790Z,1352
2024-05-09T06:26:34.921Z,1324
2024-05-09T06:27:35.872Z,1428
2024-05-09T06:28:36.819Z,1508
2024-05-09T06:29:40.148Z,1444
2024-05-09T06:30:42.662Z,1548
2024-05-09T06:31:42.171Z,1672
2024-05-09T06:32:43.263Z,1804
2024-05-09T06:33:44.211Z,1952
2024-05-09T06:34:48.279Z,1984
2024-05-09T06:35:49.026Z,2108
2024-05-09T06:36:49.801Z,2088
2024-05-09T06:37:50.791Z,2224
2024-05-09T06:38:51.693Z,2280
2024-05-09T06:39:52.937Z,2308
2024-05-09T06:40:53.944Z,2388
2024-05-09T06:42:25.372Z,2476
2024-05-09T06:43:26.332Z,2520
2024-05-09T06:44:27.537Z,2412
2024-05-09T06:45:28.275Z,2412
2024-05-09T06:46:29.236Z,2344
2024-05-09T06:47:30.448Z,2264
2024-05-09T06:48:31.666Z,2160
2024-05-09T06:49:32.914Z,2388
2024-05-09T06:50:37.779Z,2216
2024-05-09T06:51:35.251Z,2608
2024-05-09T06:52:36.387Z,2632
2024-05-09T06:53:37.867Z,2792
2024-05-09T06:54:38.592Z,2660
2024-05-09T06:55:39.836Z,2368
2024-05-09T06:56:40.967Z,2192
2024-05-09T06:57:43.231Z,2348
2024-05-09T06:58:43.149Z,2312
2024-05-09T06:59:44.426Z,2340
2024-05-09T07:00:45.465Z,2424
2024-05-09T07:01:46.431Z,2132
2024-05-09T07:02:47.434Z,2240
2024-05-09T07:03:48.793Z,2088
2024-05-09T07:04:49.927Z,2000
2024-05-09T07:05:51.164Z,1504
2024-05-09T07:06:52.183Z,1604
2024-05-09T07:07:53.231Z,1756
2024-05-09T07:09:25.469Z,1824
2024-05-09T07:10:32.969Z,1856
2024-05-09T07:11:28.083Z,1804
2024-05-09T07:12:29.266Z,1656
2024-05-09T07:13:30.414Z,1780
2024-05-09T07:14:32.783Z,1824
2024-05-09T07:15:32.702Z,1824
2024-05-09T07:16:34.006Z,1836
2024-05-09T07:17:35.596Z,1616
2024-05-09T07:18:36.793Z,1828
2024-05-09T07:19:37.799Z,1860
2024-05-09T07:20:38.849Z,1916
2024-05-09T07:21:39.852Z,1860
2024-05-09T07:22:41.004Z,1868
2024-05-09T07:23:45.168Z,1716
2024-05-09T07:24:43.537Z,1860
2024-05-09T07:25:44.673Z,1680
2024-05-09T07:26:45.825Z,1796
2024-05-09T07:27:47.224Z,1736
2024-05-09T07:28:48.269Z,2260
2024-05-09T07:29:49.440Z,2316
2024-05-09T07:30:50.827Z,2168
2024-05-09T07:31:52.077Z,2444
2024-05-09T07:32:53.356Z,2672
2024-05-09T07:34:25.065Z,2608
2024-05-09T07:35:26.365Z,2304
2024-05-09T07:36:27.423Z,2412
2024-05-09T07:37:28.541Z,2184
2024-05-09T07:38:29.848Z,2036
2024-05-09T07:39:30.996Z,2020
2024-05-09T07:40:36.167Z,2124
2024-05-09T07:41:33.691Z,1988
2024-05-09T07:42:34.639Z,1868
2024-05-09T07:43:36.170Z,1824
2024-05-09T07:44:37.417Z,1804
2024-05-09T07:45:48.608Z,1824
2024-05-09T07:47:47.667Z,1764
2024-05-09T07:49:11.974Z,1884
2024-05-09T07:51:32.292Z,1868
2024-05-09T07:53:17.071Z,1796
2024-05-09T07:53:34.601Z,1864
2024-05-09T07:53:51.171Z,1796
2024-05-09T07:54:49.176Z,1896
2024-05-09T07:55:50.212Z,1964
2024-05-09T07:56:51.692Z,1712
2024-05-09T07:57:52.730Z,2036
2024-05-09T07:59:24.720Z,2004
2024-05-09T08:00:31.116Z,2016
2024-05-09T08:01:27.733Z,2268
2024-05-09T08:02:28.895Z,2176
2024-05-09T08:03:29.833Z,2336
2024-05-09T08:04:30.867Z,2656
2024-05-09T08:05:31.996Z,2760
2024-05-09T08:06:33.105Z,2932
2024-05-09T08:07:34.171Z,2860
2024-05-09T08:08:35.414Z,2604
2024-05-09T08:09:38.380Z,2140
2024-05-09T08:10:37.545Z,2136
2024-05-09T08:11:38.569Z,2232
2024-05-09T08:12:39.572Z,2212
2024-05-09T08:13:40.382Z,2008
2024-05-09T08:14:41.430Z,1916
2024-05-09T08:15:42.445Z,2028
2024-05-09T08:16:43.376Z,1936
2024-05-09T08:17:44.523Z,1864
2024-05-09T08:18:45.565Z,1908
2024-05-09T08:19:46.516Z,2100
2024-05-09T08:20:47.598Z,2236
2024-05-09T08:21:48.502Z,2112
2024-05-09T08:22:49.568Z,2352
2024-05-09T08:23:50.554Z,2148
2024-05-09T08:24:51.660Z,2268
2024-05-09T08:25:53.241Z,2168
2024-05-09T08:27:25.004Z,2228
2024-05-09T08:28:26.329Z,2276
2024-05-09T08:29:27.424Z,2412
2024-05-09T08:30:35.827Z,2460
2024-05-09T08:31:29.862Z,2256
2024-05-09T08:32:30.969Z,2356
2024-05-09T08:33:32.451Z,2220
2024-05-09T08:34:33.662Z,2068
2024-05-09T08:35:34.954Z,2208
2024-05-09T08:36:35.794Z,2332
2024-05-09T08:37:39.907Z,2352
2024-05-09T08:38:39.862Z,2520
2024-05-09T08:39:41.047Z,2532
2024-05-09T08:40:42.376Z,2664
2024-05-09T08:41:43.274Z,2688
2024-05-09T08:42:44.311Z,2948
2024-05-09T08:43:45.287Z,3004
2024-05-09T08:44:46.406Z,2904
2024-05-09T08:45:47.569Z,2720
2024-05-09T08:46:48.537Z,2468
2024-05-09T08:47:49.563Z,2296
2024-05-09T08:48:50.710Z,2316
2024-05-09T08:49:51.548Z,2508
2024-05-09T08:50:53.096Z,2556
2024-05-09T08:52:24.475Z,2544
2024-05-09T08:53:26.076Z,2804
2024-05-09T08:54:27.250Z,2560
2024-05-09T08:55:28.119Z,2432
2024-05-09T08:56:29.053Z,2632
2024-05-09T08:57:30.155Z,3116
2024-05-09T08:58:31.159Z,3544
2024-05-09T08:59:32.120Z,3592
2024-05-09T09:00:37.048Z,3816
2024-05-09T09:01:34.842Z,3832
2024-05-09T09:02:35.979Z,3292
2024-05-09T09:03:36.844Z,2976
2024-05-09T09:04:37.821Z,2696
2024-05-09T09:05:39.530Z,2416
2024-05-09T09:06:40.099Z,2356
2024-05-09T09:07:41.387Z,2248
2024-05-09T09:08:42.462Z,2296
2024-05-09T09:09:43.795Z,2252
2024-05-09T09:10:44.870Z,2200
2024-05-09T09:11:45.891Z,2140
2024-05-09T09:12:46.828Z,2060
2024-05-09T09:13:47.804Z,1996
2024-05-09T09:14:48.919Z,1976
2024-05-09T09:15:50.550Z,1964
2024-05-09T09:16:51.685Z,1948
2024-05-09T09:18:23.538Z,1928
2024-05-09T09:19:24.542Z,1904
2024-05-09T09:20:33.271Z,1888
2024-05-09T09:21:26.551Z,1888
2024-05-09T09:22:27.659Z,1884
2024-05-09T09:23:28.567Z,1884
2024-05-09T09:24:30.064Z,1892
2024-05-09T09:25:31.013Z,1904
2024-05-09T09:26:32.002Z,1924
2024-05-09T09:27:33.342Z,1860
2024-05-09T09:28:34.618Z,1964
2024-05-09T09:29:35.573Z,1784
2024-05-09T09:30:38.071Z,1796
2024-05-09T09:31:37.588Z,2100
2024-05-09T09:32:38.496Z,2084
2024-05-09T09:33:39.582Z,2200
2024-05-09T09:34:40.655Z,2284
2024-05-09T09:35:41.494Z,2232
2024-05-09T09:36:42.469Z,2488
2024-05-09T09:37:43.729Z,2580
2024-05-09T09:38:44.982Z,2476
2024-05-09T09:39:49.097Z,2300
2024-05-09T09:40:49.693Z,2340
2024-05-09T09:41:48.607Z,2388
2024-05-09T09:42:49.786Z,2356
2024-05-09T09:43:50.772Z,2628
2024-05-09T09:45:01.880Z,2980
2024-05-09T09:46:23.937Z,3092
2024-05-09T09:47:25.059Z,3380
2024-05-09T09:48:26.104Z,3304
2024-05-09T09:49:27.100Z,3264
2024-05-09T09:50:34.121Z,3116
2024-05-09T09:51:29.299Z,3096
2024-05-09T09:52:30.423Z,2940
2024-05-09T09:53:31.455Z,2820
2024-05-09T09:54:32.436Z,2656
2024-05-09T09:55:33.653Z,2532
2024-05-09T09:56:35.001Z,2356
2024-05-09T09:57:36.042Z,2300
2024-05-09T09:58:37.103Z,2216
2024-05-09T09:59:38.228Z,2168
2024-05-09T10:00:39.762Z,2140
2024-05-09T10:01:41.053Z,1984
2024-05-09T10:02:41.997Z,2124
2024-05-09T10:03:43.119Z,2092
2024-05-09T10:04:44.197Z,2060
2024-05-09T10:05:47.159Z,2116
2024-05-09T10:06:46.490Z,2108
2024-05-09T10:07:47.522Z,2108
2024-05-09T10:08:48.560Z,2352
2024-05-09T10:09:49.626Z,2276
2024-05-09T10:10:51.043Z,2212
2024-05-09T10:12:22.346Z,2100
2024-05-09T10:13:23.484Z,1968
2024-05-09T10:14:24.621Z,1992
2024-05-09T10:15:25.862Z,2044
2024-05-09T10:16:27.109Z,2496
2024-05-09T10:17:28.377Z,2668
2024-05-09T10:18:31.328Z,2824
2024-05-09T10:19:30.702Z,3028
2024-05-09T10:20:32.855Z,2944
2024-05-09T10:21:33.242Z,2876
2024-05-09T10:22:34.132Z,2848
2024-05-09T10:23:35.226Z,2784
2024-05-09T10:24:36.675Z,2744
2024-05-09T10:25:37.843Z,3032
2024-05-09T10:26:39.169Z,3048
2024-05-09T10:27:40.233Z,3012
2024-05-09T10:28:41.282Z,2912
2024-05-09T10:29:42.635Z,2848
2024-05-09T10:30:44.490Z,2732
2024-05-09T10:31:45.006Z,2644
2024-05-09T10:32:46.124Z,2460
2024-05-09T10:33:47.510Z,2492
2024-05-09T10:34:48.277Z,2620
2024-05-09T10:35:49.392Z,2536
2024-05-09T10:36:50.548Z,2448
2024-05-09T10:37:52.319Z,2488
2024-05-09T10:39:23.701Z,2472
2024-05-09T10:40:30.983Z,2444
2024-05-09T10:41:26.097Z,2436
2024-05-09T10:42:27.247Z,2460
2024-05-09T10:43:28.695Z,2564
2024-05-09T10:44:29.620Z,2832
2024-05-09T10:45:30.772Z,3000
2024-05-09T10:46:31.907Z,2820
2024-05-09T10:47:32.968Z,3000
2024-05-09T10:48:34.380Z,3252
2024-05-09T10:49:35.323Z,3580
2024-05-09T10:50:36.429Z,3732
2024-05-09T10:51:37.285Z,4088
2024-05-09T10:52:38.450Z,4212
2024-05-09T10:53:39.418Z,4120
2024-05-09T10:54:40.724Z,3908
2024-05-09T10:55:41.760Z,4104
2024-05-09T10:56:42.737Z,4264
2024-05-09T10:57:44.051Z,4168
2024-05-09T10:58:45.074Z,4668
2024-05-09T10:59:45.944Z,5000
2024-05-09T11:00:46.973Z,5288
2024-05-09T11:01:48.105Z,5556
2024-05-09T11:02:49.195Z,5500
2024-05-09T11:03:50.445Z,5332
2024-05-09T11:04:51.831Z,5216
2024-05-09T11:06:23.448Z,5048
2024-05-09T11:07:24.699Z,4840
2024-05-09T11:08:25.763Z,4824
2024-05-09T11:09:26.893Z,4624
2024-05-09T11:10:33.692Z,4440
2024-05-09T11:11:28.926Z,4140
2024-05-09T11:12:29.923Z,3804
2024-05-09T11:13:31.510Z,3600
2024-05-09T11:14:32.254Z,3416
2024-05-09T11:15:33.382Z,3780
2024-05-09T11:16:34.558Z,3964
2024-05-09T11:17:35.676Z,4292
2024-05-09T11:18:39.081Z,4680
2024-05-09T11:19:37.698Z,4856
2024-05-09T11:20:39.048Z,4736
2024-05-09T11:21:40.271Z,4948
2024-05-09T11:22:41.224Z,5044
2024-05-09T11:23:42.240Z,4824
2024-05-09T11:24:43.337Z,4596
2024-05-09T11:25:44.401Z,4796
2024-05-09T11:26:45.342Z,5556
2024-05-09T11:27:46.292Z,6140
2024-05-09T11:28:47.275Z,6544
2024-05-09T11:29:48.297Z,7152
2024-05-09T11:30:49.218Z,7088
2024-05-09T11:31:50.163Z,7308
2024-05-09T11:33:22.138Z,7756
2024-05-09T11:34:23.013Z,8116
2024-05-09T11:35:24.045Z,7888
2024-05-09T11:36:26.887Z,8104
2024-05-09T11:37:27.999Z,8064
2024-05-09T11:38:29.260Z,7496
2024-05-09T11:39:30.367Z,7252
2024-05-09T11:40:34.337Z,7080
2024-05-09T11:41:32.462Z,7388
2024-05-09T11:42:33.985Z,7696
2024-05-09T11:43:35.466Z,7576
2024-05-09T11:44:36.361Z,7840
2024-05-09T11:45:37.369Z,8428
2024-05-09T11:46:38.499Z,8388
2024-05-09T11:47:39.648Z,8484
2024-05-09T11:48:40.718Z,8116
2024-05-09T11:49:41.553Z,7800
2024-05-09T11:50:42.649Z,7624
2024-05-09T11:51:43.561Z,8036
2024-05-09T11:52:44.494Z,8224
2024-05-09T11:53:45.493Z,8004
2024-05-09T11:54:46.703Z,7792
2024-05-09T11:55:47.582Z,7796
2024-05-09T11:56:48.504Z,8272
2024-05-09T11:57:49.515Z,7944
2024-05-09T11:58:50.784Z,7412
2024-05-09T12:01:26.965Z,6484
2024-05-09T12:02:24.430Z,6020
2024-05-09T12:03:25.376Z,5648
2024-05-09T12:04:26.583Z,5732
2024-05-09T12:05:27.570Z,5916
2024-05-09T12:06:28.642Z,6152
2024-05-09T12:07:29.902Z,6432
2024-05-09T12:08:30.779Z,7108
2024-05-09T12:09:31.943Z,7696
2024-05-09T12:10:35.404Z,8212
2024-05-09T12:11:34.086Z,8520
2024-05-09T12:12:37.092Z,8792
2024-05-09T12:13:36.278Z,9196
2024-05-09T12:14:37.271Z,9000
2024-05-09T12:15:39.076Z,9116
2024-05-09T12:16:40.543Z,9448
2024-05-09T12:17:41.686Z,9720
2024-05-09T12:18:42.687Z,9868
2024-05-09T12:19:43.627Z,9640
2024-05-09T12:20:44.546Z,9612
2024-05-09T12:21:45.651Z,8136
2024-05-09T12:22:46.555Z,7424
2024-05-09T12:23:47.911Z,7608
2024-05-09T12:24:48.833Z,7944
2024-05-09T12:25:50.785Z,8920
2024-05-09T12:27:22.408Z,8400
2024-05-09T12:28:23.562Z,7968
2024-05-09T12:29:24.565Z,7940
2024-05-09T12:30:34.869Z,7120
2024-05-09T12:31:26.706Z,8004
2024-05-09T12:32:27.731Z,8940
2024-05-09T12:33:29.277Z,9164
2024-05-09T12:34:30.372Z,8144
2024-05-09T12:35:31.502Z,8292
2024-05-09T12:36:32.527Z,8624
2024-05-09T12:37:33.638Z,8644
2024-05-09T12:38:34.886Z,8364
2024-05-09T12:39:35.958Z,7856
2024-05-09T12:40:38.798Z,8000
2024-05-09T12:41:38.295Z,8448
2024-05-09T12:42:39.708Z,9496
2024-05-09T12:43:40.671Z,10332
2024-05-09T12:44:41.875Z,10304
2024-05-09T12:45:43.227Z,9848
2024-05-09T12:46:44.238Z,10000
2024-05-09T12:47:45.510Z,10148
2024-05-09T12:48:46.585Z,8760
2024-05-09T12:49:47.395Z,9264
2024-05-09T12:50:48.368Z,9312
2024-05-09T12:51:49.334Z,11860
2024-05-09T12:53:21.424Z,12536
2024-05-09T12:54:22.415Z,12300
2024-05-09T12:55:24.194Z,12896
2024-05-09T12:56:25.122Z,11992
2024-05-09T12:57:26.295Z,11400
2024-05-09T12:58:28.220Z,10804
2024-05-09T12:59:29.257Z,10160
2024-05-09T13:00:33.796Z,9932
2024-05-09T13:01:31.609Z,9948
2024-05-09T13:02:33.314Z,9100
2024-05-09T13:03:35.152Z,7740
2024-05-09T13:04:39.265Z,7044
2024-05-09T13:05:40.315Z,7280
2024-05-09T13:06:41.153Z,6976
2024-05-09T13:07:42.426Z,6832
2024-05-09T13:08:43.490Z,6468
2024-05-09T13:09:44.613Z,6248
2024-05-09T13:10:45.587Z,5848
2024-05-09T13:11:48.649Z,5816
2024-05-09T13:12:50.359Z,5812
2024-05-09T13:14:24.298Z,5608
2024-05-09T13:15:25.365Z,5676
2024-05-09T13:16:26.498Z,6332
2024-05-09T13:17:27.630Z,7256
2024-05-09T13:18:28.395Z,7916
2024-05-09T13:19:29.575Z,8296
2024-05-09T13:20:33.474Z,9144
2024-05-09T13:21:31.565Z,10548
2024-05-09T13:22:32.366Z,11132
2024-05-09T13:23:33.317Z,12500
2024-05-09T13:24:34.233Z,11244
2024-05-09T13:25:35.599Z,10004
2024-05-09T13:26:36.651Z,9392
2024-05-09T13:27:37.997Z,7932
2024-05-09T13:28:38.997Z,7608
2024-05-09T13:29:42.709Z,7664
2024-05-09T13:30:42.295Z,7780
2024-05-09T13:31:42.189Z,8300
2024-05-09T13:32:43.333Z,8988
2024-05-09T13:33:44.186Z,9148
2024-05-09T13:34:45.166Z,10128
2024-05-09T13:35:49.716Z,11880
2024-05-09T13:36:47.118Z,11488
2024-05-09T13:37:51.956Z,12404
2024-05-09T13:39:23.517Z,10592
2024-05-09T13:40:32.218Z,10444
2024-05-09T13:41:26.634Z,13096
2024-05-09T13:42:27.565Z,11120
2024-05-09T13:43:28.656Z,9716
2024-05-09T13:44:29.784Z,9428
2024-05-09T13:45:30.795Z,10224
2024-05-09T13:46:31.911Z,9756
2024-05-09T13:47:32.876Z,8876
2024-05-09T13:48:33.756Z,8636
2024-05-09T13:49:34.861Z,8660
2024-05-09T13:50:37.033Z,9092
2024-05-09T13:51:37.079Z,10720
2024-05-09T13:52:38.272Z,11376
2024-05-09T13:53:39.537Z,11608
2024-05-09T13:54:40.522Z,13112
2024-05-09T13:55:41.420Z,13552
2024-05-09T13:56:42.478Z,19936
2024-05-09T13:57:43.439Z,14252
2024-05-09T13:58:44.391Z,17792
2024-05-09T13:59:45.470Z,16416
2024-05-09T14:00:48.717Z,25664
2024-05-09T14:01:47.420Z,49472
2024-05-09T14:02:48.493Z,30528
2024-05-09T14:03:50.173Z,34336
2024-05-09T14:05:21.710Z,31232
2024-05-09T14:06:22.641Z,67520
2024-05-09T14:07:23.772Z,35040
2024-05-09T14:08:24.686Z,80384
2024-05-09T14:09:25.636Z,101216
2024-05-09T14:10:31.051Z,52608
2024-05-09T14:11:27.851Z,41120
2024-05-09T14:12:28.862Z,31552
2024-05-09T14:13:29.867Z,37952
2024-05-09T14:14:30.828Z,30816
2024-05-09T14:15:31.939Z,30080
2024-05-09T14:16:33.354Z,28224
2024-05-09T14:17:34.742Z,36320
2024-05-09T14:18:35.608Z,40448
2024-05-09T14:19:36.458Z,25408
2024-05-09T14:20:37.322Z,23872
2024-05-09T14:21:38.488Z,23360
2024-05-09T14:22:39.757Z,38304